createdAt,value
2018-09-29T00:01:15.875Z,2.80
2018-09-29T00:03:44.052Z,2.70
2018-09-29T00:06:12.185Z,3.10
2018-09-29T00:08:40.578Z,3.53
2018-09-29T00:11:09.011Z,3.40
2018-09-29T00:13:37.212Z,3.17
2018-09-29T00:16:05.356Z,3.37
2018-09-29T00:18:33.507Z,3.77
2018-09-29T00:21:01.983Z,3.37
2018-09-29T00:23:30.159Z,3.37
2018-09-29T00:25:58.536Z,2.73
2018-09-29T00:28:26.776Z,3.27
2018-09-29T00:30:55.179Z,2.93
2018-09-29T00:33:23.355Z,3.30
2018-09-29T00:35:51.501Z,2.90
2018-09-29T00:38:19.695Z,3.07
2018-09-29T00:40:48.145Z,2.73
2018-09-29T00:43:16.646Z,2.90
2018-09-29T00:45:44.796Z,3.10
2018-09-29T00:48:12.943Z,3.17
2018-09-29T00:50:41.078Z,2.67
2018-09-29T00:53:09.268Z,3.40
2018-09-29T00:55:37.422Z,2.77
2018-09-29T00:58:06.011Z,2.60
2018-09-29T01:00:34.232Z,2.90
2018-09-29T01:03:02.820Z,2.73
2018-09-29T01:05:31.197Z,3.30
2018-09-29T01:07:59.380Z,2.90
2018-09-29T01:10:27.533Z,2.90
2018-09-29T01:12:56.003Z,3.20
2018-09-29T01:15:24.160Z,2.80
2018-09-29T01:17:52.592Z,3.63
2018-09-29T01:20:21.180Z,2.70
2018-09-29T01:22:49.644Z,3.30
2018-09-29T01:25:17.803Z,3.30
2018-09-29T01:27:46.052Z,3.30
2018-09-29T01:30:14.556Z,3.37
2018-09-29T01:32:42.991Z,3.13
2018-09-29T01:35:11.484Z,3.03
2018-09-29T01:37:39.866Z,2.90
2018-09-29T01:40:08.392Z,3.17
2018-09-29T01:42:36.755Z,3.10
2018-09-29T01:45:05.536Z,2.90
2018-09-29T01:47:33.920Z,3.03
2018-09-29T01:50:02.312Z,3.10
2018-09-29T01:52:30.714Z,2.70
2018-09-29T01:54:59.252Z,3.20
2018-09-29T01:57:27.710Z,3.17
2018-09-29T01:59:56.123Z,3.13
2018-09-29T02:02:24.646Z,3.00
2018-09-29T02:04:54.079Z,3.23
2018-09-29T02:07:22.862Z,3.20
2018-09-29T02:09:51.516Z,3.17
2018-09-29T02:12:20.138Z,2.73
2018-09-29T02:14:48.501Z,3.10
2018-09-29T02:17:16.951Z,3.00
2018-09-29T02:19:45.432Z,3.13
2018-09-29T02:22:14.006Z,3.17
2018-09-29T02:24:42.487Z,3.10
2018-09-29T02:27:10.857Z,2.97
2018-09-29T02:29:39.686Z,3.00
2018-09-29T02:32:08.153Z,3.30
2018-09-29T02:34:36.653Z,3.00
2018-09-29T02:37:05.083Z,3.00
2018-09-29T02:39:33.438Z,3.00
2018-09-29T02:42:01.811Z,3.20
2018-09-29T02:44:30.281Z,2.77
2018-09-29T02:46:58.652Z,3.37
2018-09-29T02:49:27.092Z,3.30
2018-09-29T02:51:55.608Z,3.30
2018-09-29T02:54:24.067Z,3.00
2018-09-29T02:56:52.515Z,3.27
2018-09-29T02:59:20.994Z,3.10
2018-09-29T03:01:49.564Z,3.30
2018-09-29T03:04:17.918Z,3.37
2018-09-29T03:06:46.291Z,3.63
2018-09-29T03:09:14.639Z,2.67
2018-09-29T03:11:43.151Z,2.87
2018-09-29T03:14:11.659Z,3.80
2018-09-29T03:16:40.043Z,3.27
2018-09-29T03:19:08.508Z,3.07
2018-09-29T03:21:36.980Z,3.13
2018-09-29T03:24:05.407Z,3.10
2018-09-29T03:26:33.938Z,2.90
2018-09-29T03:29:02.412Z,2.47
2018-09-29T03:31:30.994Z,2.97
2018-09-29T03:33:59.383Z,2.33
2018-09-29T03:36:27.869Z,2.43
2018-09-29T03:38:56.244Z,2.93
2018-09-29T03:41:24.622Z,3.17
2018-09-29T03:43:53.039Z,3.30
2018-09-29T03:46:21.486Z,3.17
2018-09-29T03:48:49.911Z,2.60
2018-09-29T03:51:18.421Z,2.83
2018-09-29T03:53:46.771Z,2.90
2018-09-29T03:56:15.193Z,3.30
2018-09-29T03:58:43.618Z,2.67
2018-09-29T04:01:11.823Z,3.00
2018-09-29T04:03:39.964Z,3.00
2018-09-29T04:06:08.687Z,3.20
2018-09-29T04:08:36.842Z,3.00
2018-09-29T04:11:05.018Z,3.20
2018-09-29T04:13:33.431Z,3.40
2018-09-29T04:16:01.687Z,2.70
2018-09-29T04:18:29.852Z,2.90
2018-09-29T04:20:58.300Z,3.00
2018-09-29T04:23:26.486Z,3.17
2018-09-29T04:25:54.655Z,3.17
2018-09-29T04:28:22.856Z,3.13
2018-09-29T04:30:51.060Z,3.17
2018-09-29T04:33:19.261Z,2.60
2018-09-29T04:35:47.432Z,2.60
2018-09-29T04:38:15.619Z,3.53
2018-09-29T04:40:44.253Z,3.37
2018-09-29T04:43:12.449Z,3.33
2018-09-29T04:45:40.640Z,3.00
2018-09-29T04:48:08.819Z,3.10
2018-09-29T04:50:37.012Z,3.57
2018-09-29T04:53:05.243Z,3.40
2018-09-29T04:55:33.399Z,3.53
2018-09-29T04:58:01.802Z,3.70
2018-09-29T05:00:30.220Z,3.17
2018-09-29T05:02:58.756Z,3.20
2018-09-29T05:05:26.987Z,3.27
2018-09-29T05:07:55.245Z,3.17
2018-09-29T05:10:23.436Z,3.30
2018-09-29T05:12:51.639Z,3.27
2018-09-29T05:15:19.801Z,3.00
2018-09-29T05:17:48.261Z,3.40
2018-09-29T05:20:16.679Z,3.80
2018-09-29T05:22:44.890Z,2.93
2018-09-29T05:25:13.372Z,3.00
2018-09-29T05:27:41.583Z,3.40
2018-09-29T05:30:10.732Z,3.70
2018-09-29T05:32:39.241Z,3.27
2018-09-29T05:35:07.402Z,3.47
2018-09-29T05:37:35.615Z,3.80
2018-09-29T05:40:03.815Z,3.10
2018-09-29T05:42:31.999Z,3.50
2018-09-29T05:45:00.167Z,4.00
2018-09-29T05:47:28.332Z,3.53
2018-09-29T05:49:56.475Z,3.80
2018-09-29T05:52:24.909Z,3.40
2018-09-29T05:54:53.075Z,3.90
2018-09-29T05:57:21.672Z,4.10
2018-09-29T05:59:49.871Z,4.10
2018-09-29T06:02:18.057Z,4.20
2018-09-29T06:04:46.500Z,4.20
2018-09-29T06:07:14.729Z,4.60
2018-09-29T06:09:43.163Z,4.40
2018-09-29T06:12:11.350Z,5.10
2018-09-29T06:14:46.226Z,8.00
2018-09-29T06:17:15.621Z,8.03
2018-09-29T06:19:43.991Z,8.50
2018-09-29T06:22:12.150Z,8.17
2018-09-29T06:24:40.328Z,5.60
2018-09-29T06:27:08.550Z,5.73
2018-09-29T06:29:57.732Z,4.87
2018-09-29T06:32:25.915Z,4.47
2018-09-29T06:34:54.108Z,5.00
2018-09-29T06:37:22.274Z,4.90
2018-09-29T06:39:50.467Z,4.70
2018-09-29T06:42:18.630Z,4.50
2018-09-29T06:44:46.815Z,4.67
2018-09-29T06:47:15.304Z,4.43
2018-09-29T06:49:43.492Z,4.40
2018-09-29T06:52:11.651Z,3.87
2018-09-29T06:54:39.911Z,3.60
2018-09-29T06:57:08.041Z,3.73
2018-09-29T06:59:36.243Z,3.57
2018-09-29T07:02:04.397Z,3.20
2018-09-29T07:04:32.564Z,4.07
2018-09-29T07:07:00.725Z,3.73
2018-09-29T07:09:28.917Z,3.70
2018-09-29T07:11:57.070Z,3.93
2018-09-29T07:14:25.328Z,4.60
2018-09-29T07:16:53.507Z,3.77
2018-09-29T07:19:21.952Z,4.23
2018-09-29T07:21:50.307Z,3.97
2018-09-29T07:24:18.343Z,4.20
2018-09-29T07:26:46.524Z,4.53
2018-09-29T07:29:14.775Z,4.93
2018-09-29T07:31:42.940Z,4.53
2018-09-29T07:34:11.176Z,4.50
2018-09-29T07:36:39.353Z,4.50
2018-09-29T07:39:08.846Z,4.20
2018-09-29T07:41:37.252Z,5.23
2018-09-29T07:44:05.901Z,4.37
2018-09-29T07:46:34.343Z,4.47
2018-09-29T07:49:02.976Z,4.60
2018-09-29T07:51:31.544Z,4.67
2018-09-29T07:53:59.892Z,4.90
2018-09-29T07:56:28.288Z,5.03
2018-09-29T07:58:56.728Z,4.87
2018-09-29T08:01:25.126Z,4.70
2018-09-29T08:03:53.619Z,4.00
2018-09-29T08:06:22.354Z,4.37
2018-09-29T08:08:50.677Z,4.80
2018-09-29T08:11:19.137Z,4.40
2018-09-29T08:13:47.690Z,3.97
2018-09-29T08:16:16.081Z,3.60
2018-09-29T08:18:44.459Z,3.27
2018-09-29T08:21:12.886Z,3.20
2018-09-29T08:23:42.301Z,2.97
2018-09-29T08:26:10.688Z,2.60
2018-09-29T08:28:39.061Z,3.00
2018-09-29T08:31:07.490Z,3.33
2018-09-29T08:33:35.859Z,3.20
2018-09-29T08:36:04.271Z,3.20
2018-09-29T08:38:32.630Z,3.13
2018-09-29T08:41:01.048Z,2.70
2018-09-29T08:43:29.440Z,2.83
2018-09-29T08:45:57.852Z,3.10
2018-09-29T08:48:26.240Z,3.03
2018-09-29T08:50:54.621Z,2.80
2018-09-29T08:53:23.118Z,2.57
2018-09-29T08:55:51.540Z,2.87
2018-09-29T08:58:20.013Z,2.70
2018-09-29T09:00:48.400Z,2.90
2018-09-29T09:03:16.796Z,2.80
2018-09-29T09:05:45.229Z,3.20
2018-09-29T09:08:13.921Z,3.43
2018-09-29T09:10:42.507Z,3.30
2018-09-29T09:13:10.998Z,2.73
2018-09-29T09:15:39.465Z,3.23
2018-09-29T09:18:07.923Z,3.10
2018-09-29T09:20:36.381Z,2.80
2018-09-29T09:23:04.916Z,2.90
2018-09-29T09:25:33.321Z,2.70
2018-09-29T09:28:01.846Z,2.77
2018-09-29T09:30:30.270Z,2.50
2018-09-29T09:32:58.684Z,2.10
2018-09-29T09:35:27.040Z,1.93
2018-09-29T09:37:55.359Z,1.70
2018-09-29T09:40:23.789Z,1.80
2018-09-29T09:42:52.199Z,2.10
2018-09-29T09:45:21.759Z,1.83
2018-09-29T09:47:50.294Z,1.60
2018-09-29T09:50:18.659Z,1.70
2018-09-29T09:52:47.100Z,1.50
2018-09-29T09:55:15.538Z,1.83
2018-09-29T09:57:44.538Z,1.90
2018-09-29T10:00:13.071Z,1.57
2018-09-29T10:02:46.495Z,1.80
2018-09-29T10:05:14.714Z,1.47
2018-09-29T10:07:43.279Z,1.70
2018-09-29T10:10:11.448Z,1.50
2018-09-29T10:12:40.055Z,1.50
2018-09-29T10:15:08.338Z,1.47
2018-09-29T10:17:37.535Z,1.70
2018-09-29T10:20:06.363Z,1.93
2018-09-29T10:22:34.567Z,1.87
2018-09-29T10:25:02.751Z,1.80
2018-09-29T10:27:30.974Z,1.83
2018-09-29T10:29:59.442Z,1.97
2018-09-29T10:32:27.936Z,1.60
2018-09-29T10:34:56.117Z,1.73
2018-09-29T10:37:24.336Z,1.50
2018-09-29T10:39:52.564Z,1.77
2018-09-29T10:42:20.816Z,1.77
2018-09-29T10:44:48.986Z,1.40
2018-09-29T10:47:17.200Z,1.40
2018-09-29T10:49:45.434Z,1.47
2018-09-29T10:52:13.636Z,1.57
2018-09-29T10:54:41.900Z,1.50
2018-09-29T10:57:10.447Z,1.67
2018-09-29T10:59:38.993Z,1.40
2018-09-29T11:02:07.627Z,1.40
2018-09-29T11:04:35.835Z,1.50
2018-09-29T11:07:04.050Z,1.33
2018-09-29T11:09:32.274Z,1.20
2018-09-29T11:12:00.443Z,1.43
2018-09-29T11:14:28.638Z,1.37
2018-09-29T11:16:56.795Z,1.20
2018-09-29T11:19:24.990Z,1.40
2018-09-29T11:21:53.177Z,1.33
2018-09-29T11:24:21.359Z,1.60
2018-09-29T11:26:50.392Z,1.37
2018-09-29T11:29:18.635Z,1.20
2018-09-29T11:31:46.836Z,1.30
2018-09-29T11:34:15.049Z,1.40
2018-09-29T11:36:43.267Z,1.10
2018-09-29T11:39:12.545Z,1.30
2018-09-29T11:41:40.815Z,1.37
2018-09-29T11:44:09.527Z,1.10
2018-09-29T11:46:37.708Z,1.20
2018-09-29T11:49:06.047Z,1.20
2018-09-29T11:51:34.329Z,1.00
2018-09-29T11:54:02.475Z,1.37
2018-09-29T11:56:30.654Z,1.37
2018-09-29T11:58:59.175Z,1.23
2018-09-29T12:01:27.363Z,1.30
2018-09-29T12:03:55.783Z,1.50
2018-09-29T12:06:24.035Z,1.30
2018-09-29T12:08:52.215Z,1.20
2018-09-29T12:11:20.384Z,1.20
2018-09-29T12:13:48.615Z,1.00
2018-09-29T12:16:16.803Z,1.17
2018-09-29T12:18:45.004Z,1.20
2018-09-29T12:21:13.590Z,1.60
2018-09-29T12:23:41.683Z,1.67
2018-09-29T12:26:09.856Z,1.47
2018-09-29T12:28:38.055Z,1.10
2018-09-29T12:31:06.215Z,1.30
2018-09-29T12:33:41.052Z,1.30
2018-09-29T12:36:09.699Z,1.30
2018-09-29T12:38:37.900Z,1.37
2018-09-29T12:41:06.812Z,1.13
2018-09-29T12:43:34.996Z,1.10
2018-09-29T12:46:03.179Z,1.27
2018-09-29T12:48:32.038Z,1.10
2018-09-29T12:51:00.606Z,1.10
2018-09-29T12:53:28.823Z,1.33
2018-09-29T12:55:57.050Z,1.40
2018-09-29T12:58:25.457Z,1.10
2018-09-29T13:00:53.639Z,1.27
2018-09-29T13:03:22.132Z,1.33
2018-09-29T13:05:50.556Z,1.10
2018-09-29T13:08:19.203Z,1.50
2018-09-29T13:10:47.416Z,1.20
2018-09-29T13:13:15.589Z,1.70
2018-09-29T13:15:43.765Z,1.37
2018-09-29T13:18:11.945Z,1.67
2018-09-29T13:20:40.125Z,2.60
2018-09-29T13:23:08.295Z,4.00
2018-09-29T13:25:36.478Z,1.40
2018-09-29T13:28:04.967Z,1.23
2018-09-29T13:30:33.296Z,1.00
2018-09-29T13:33:01.849Z,1.10
2018-09-29T13:35:30.421Z,1.30
2018-09-29T13:37:58.875Z,0.90
2018-09-29T13:40:27.369Z,1.40
2018-09-29T13:42:55.815Z,1.00
2018-09-29T13:45:24.216Z,0.90
2018-09-29T13:47:52.708Z,1.20
2018-09-29T13:50:21.151Z,1.00
2018-09-29T13:52:49.544Z,1.00
2018-09-29T13:55:17.960Z,1.20
2018-09-29T13:57:46.315Z,1.20
2018-09-29T14:00:15.287Z,1.23
2018-09-29T14:02:50.359Z,1.10
2018-09-29T14:05:18.777Z,1.07
2018-09-29T14:07:47.396Z,0.90
2018-09-29T14:10:15.850Z,1.00
2018-09-29T14:12:44.255Z,1.70
2018-09-29T14:15:12.703Z,1.13
2018-09-29T14:17:41.824Z,1.10
2018-09-29T14:20:10.329Z,1.10
2018-09-29T14:22:38.876Z,0.90
2018-09-29T14:25:07.084Z,0.97
2018-09-29T14:27:35.647Z,1.20
2018-09-29T14:30:03.950Z,1.07
2018-09-29T14:32:32.414Z,1.07
2018-09-29T14:35:00.591Z,0.87
2018-09-29T14:37:28.763Z,1.00
2018-09-29T14:39:56.917Z,1.30
2018-09-29T14:42:25.513Z,1.00
2018-09-29T14:44:53.683Z,0.90
2018-09-29T14:47:21.856Z,0.93
2018-09-29T14:49:50.029Z,1.33
2018-09-29T14:52:18.275Z,0.90
2018-09-29T14:54:46.416Z,1.07
2018-09-29T14:57:14.626Z,0.83
2018-09-29T14:59:42.804Z,1.30
2018-09-29T15:02:11.255Z,1.20
2018-09-29T15:04:39.423Z,0.90
2018-09-29T15:07:07.591Z,1.20
2018-09-29T15:09:35.803Z,1.10
2018-09-29T15:12:04.606Z,1.10
2018-09-29T15:14:33.176Z,0.93
2018-09-29T15:17:01.376Z,1.07
2018-09-29T15:19:29.571Z,1.27
2018-09-29T15:21:58.092Z,1.20
2018-09-29T15:24:26.271Z,1.00
2018-09-29T15:26:54.496Z,1.10
2018-09-29T15:29:23.130Z,1.00
2018-09-29T15:31:51.596Z,1.50
2018-09-29T15:34:20.756Z,1.20
2018-09-29T15:36:48.996Z,1.30
2018-09-29T15:39:18.917Z,1.30
2018-09-29T15:41:53.180Z,1.57
2018-09-29T15:44:23.092Z,1.33
2018-09-29T15:46:53.072Z,1.23
2018-09-29T15:49:23.078Z,1.30
2018-09-29T15:51:53.068Z,1.00
2018-09-29T15:54:23.124Z,1.43
2018-09-29T15:56:53.284Z,1.17
2018-09-29T15:59:23.505Z,1.43
2018-09-29T16:01:53.552Z,1.37
2018-09-29T16:04:24.015Z,1.27
2018-09-29T16:06:53.828Z,1.17
2018-09-29T16:09:24.215Z,1.50
2018-09-29T16:11:54.292Z,1.10
2018-09-29T16:14:24.450Z,1.17
2018-09-29T16:16:54.505Z,1.50
2018-09-29T16:19:24.567Z,1.53
2018-09-29T16:21:54.601Z,1.20
2018-09-29T16:24:24.863Z,1.03
2018-09-29T16:26:55.391Z,1.40
2018-09-29T16:29:24.609Z,1.47
2018-09-29T16:31:55.007Z,1.10
2018-09-29T16:34:25.187Z,1.43
2018-09-29T16:36:55.145Z,1.40
2018-09-29T16:39:25.095Z,1.00
2018-09-29T16:41:55.070Z,1.30
2018-09-29T16:44:25.125Z,1.30
2018-09-29T16:46:54.728Z,1.30
2018-09-29T16:49:25.260Z,1.30
2018-09-29T16:51:54.841Z,1.13
2018-09-29T16:54:25.481Z,1.20
2018-09-29T16:56:56.049Z,1.10
2018-09-29T16:59:27.048Z,1.40
2018-09-29T17:01:57.520Z,1.53
2018-09-29T17:04:28.445Z,1.60
2018-09-29T17:06:57.946Z,1.73
2018-09-29T17:09:27.935Z,1.40
2018-09-29T17:11:57.677Z,1.37
2018-09-29T17:14:27.712Z,1.40
2018-09-29T17:16:57.552Z,1.50
2018-09-29T17:19:27.757Z,1.63
2018-09-29T17:21:57.863Z,1.63
2018-09-29T17:24:28.028Z,1.90
2018-09-29T17:26:58.072Z,1.83
2018-09-29T17:29:28.714Z,2.00
2018-09-29T17:31:57.047Z,2.00
2018-09-29T17:34:25.406Z,1.53
2018-09-29T17:36:54.039Z,1.80
2018-09-29T17:39:22.252Z,1.70
2018-09-29T17:41:50.437Z,1.80
2018-09-29T17:44:19.017Z,1.20
2018-09-29T17:46:47.216Z,1.93
2018-09-29T17:49:15.401Z,1.67
2018-09-29T17:51:45.906Z,1.70
2018-09-29T17:54:14.411Z,1.90
2018-09-29T17:56:42.792Z,1.90
2018-09-29T17:59:11.018Z,2.20
2018-09-29T18:01:39.312Z,2.07
2018-09-29T18:04:07.622Z,2.00
2018-09-29T18:06:35.907Z,2.10
2018-09-29T18:09:06.128Z,1.90
2018-09-29T18:11:35.134Z,2.10
2018-09-29T18:14:03.505Z,1.90
2018-09-29T18:16:32.916Z,1.60
2018-09-29T18:19:01.589Z,1.53
2018-09-29T18:21:30.128Z,1.77
2018-09-29T18:23:58.779Z,1.70
2018-09-29T18:26:27.525Z,2.00
2018-09-29T18:28:56.778Z,1.80
2018-09-29T18:31:25.351Z,1.97
2018-09-29T18:33:53.926Z,1.90
2018-09-29T18:36:23.101Z,2.10
2018-09-29T18:38:51.552Z,1.70
2018-09-29T18:41:19.818Z,2.10
2018-09-29T18:43:48.156Z,1.97
2018-09-29T18:46:17.519Z,2.27
2018-09-29T18:48:46.517Z,2.30
2018-09-29T18:51:15.422Z,2.33
2018-09-29T18:53:44.572Z,2.90
2018-09-29T18:56:13.256Z,3.80
2018-09-29T18:58:42.288Z,2.27
2018-09-29T19:01:11.171Z,2.50
2018-09-29T19:03:39.651Z,2.30
2018-09-29T19:06:08.490Z,2.43
2018-09-29T19:08:37.449Z,2.80
2018-09-29T19:11:05.902Z,2.60
2018-09-29T19:13:35.151Z,2.53
2018-09-29T19:16:03.449Z,3.13
2018-09-29T19:18:31.906Z,2.20
2018-09-29T19:21:00.438Z,2.50
2018-09-29T19:23:29.858Z,2.20
2018-09-29T19:25:58.389Z,2.23
2018-09-29T19:28:27.324Z,2.57
2018-09-29T19:30:56.439Z,2.33
2018-09-29T19:33:24.737Z,2.60
2018-09-29T19:35:53.342Z,2.87
2018-09-29T19:38:22.005Z,2.50
2018-09-29T19:40:50.583Z,3.07
2018-09-29T19:43:20.085Z,3.10
2018-09-29T19:45:49.119Z,3.20
2018-09-29T19:48:18.084Z,3.00
2018-09-29T19:50:46.966Z,3.10
2018-09-29T19:53:15.415Z,2.87
2018-09-29T19:55:43.636Z,2.83
2018-09-29T19:58:11.870Z,2.83
2018-09-29T20:00:40.063Z,2.83
2018-09-29T20:03:08.220Z,2.53
2018-09-29T20:05:36.655Z,2.93
2018-09-29T20:08:04.911Z,2.80
2018-09-29T20:10:33.127Z,2.37
2018-09-29T20:13:01.636Z,2.57
2018-09-29T20:15:29.816Z,2.60
2018-09-29T20:17:58.327Z,2.17
2018-09-29T20:20:26.587Z,2.20
2018-09-29T20:22:55.335Z,2.60
2018-09-29T20:25:23.924Z,2.40
2018-09-29T20:27:52.092Z,2.20
2018-09-29T20:30:20.295Z,2.23
2018-09-29T20:32:48.539Z,2.20
2018-09-29T20:35:17.256Z,2.27
2018-09-29T20:37:45.857Z,2.10
2018-09-29T20:40:14.047Z,2.13
2018-09-29T20:42:42.524Z,2.00
2018-09-29T20:45:10.695Z,2.17
2018-09-29T20:47:38.904Z,2.00
2018-09-29T20:50:07.472Z,2.17
2018-09-29T20:52:35.667Z,2.23
2018-09-29T20:55:04.153Z,2.30
2018-09-29T20:57:32.782Z,2.40
2018-09-29T21:00:00.989Z,2.07
2018-09-29T21:02:29.193Z,2.40
2018-09-29T21:04:57.656Z,2.50
2018-09-29T21:07:25.872Z,2.20
2018-09-29T21:09:54.072Z,2.30
2018-09-29T21:12:22.523Z,2.23
2018-09-29T21:14:50.969Z,2.50
2018-09-29T21:17:19.155Z,2.30
2018-09-29T21:19:47.338Z,2.23
2018-09-29T21:22:15.552Z,2.20
2018-09-29T21:24:43.736Z,2.70
2018-09-29T21:27:12.230Z,3.00
2018-09-29T21:29:40.415Z,3.97
2018-09-29T21:32:08.598Z,3.23
2018-09-29T21:34:36.770Z,4.00
2018-09-29T21:37:05.167Z,3.70
2018-09-29T21:39:33.731Z,2.57
2018-09-29T21:42:02.210Z,2.90
2018-09-29T21:44:30.370Z,2.93
2018-09-29T21:46:58.536Z,3.00
2018-09-29T21:49:26.723Z,3.03
2018-09-29T21:51:54.904Z,2.50
2018-09-29T21:54:23.101Z,2.43
2018-09-29T21:56:51.294Z,3.17
2018-09-29T21:59:19.884Z,3.10
2018-09-29T22:01:48.069Z,3.20
2018-09-29T22:04:16.236Z,2.97
2018-09-29T22:06:44.500Z,3.17
2018-09-29T22:09:16.912Z,2.53
2018-09-29T22:11:45.110Z,3.80
2018-09-29T22:14:13.281Z,3.10
2018-09-29T22:16:41.436Z,3.40
2018-09-29T22:19:09.898Z,3.60
2018-09-29T22:21:38.109Z,3.10
2018-09-29T22:24:06.736Z,3.03
2018-09-29T22:26:34.908Z,2.93
2018-09-29T22:29:03.519Z,2.77
2018-09-29T22:31:32.079Z,2.93
2018-09-29T22:34:00.292Z,3.00
2018-09-29T22:36:28.467Z,3.03
2018-09-29T22:38:56.663Z,3.23
2018-09-29T22:41:24.823Z,3.30
2018-09-29T22:43:53.026Z,3.50
2018-09-29T22:46:21.217Z,3.87
2018-09-29T22:48:49.423Z,3.30
2018-09-29T22:51:17.610Z,3.80
2018-09-29T22:53:45.840Z,3.23
2018-09-29T22:56:14.004Z,3.80
2018-09-29T22:58:42.199Z,3.83
2018-09-29T23:01:10.764Z,4.10
2018-09-29T23:03:38.943Z,3.50
2018-09-29T23:06:07.159Z,4.23
2018-09-29T23:08:35.355Z,3.90
2018-09-29T23:11:03.527Z,3.20
2018-09-29T23:13:31.735Z,3.30
2018-09-29T23:15:59.957Z,3.43
2018-09-29T23:18:28.519Z,3.70
2018-09-29T23:20:56.715Z,3.40
2018-09-29T23:23:24.868Z,3.60
2018-09-29T23:25:53.066Z,4.70
2018-09-29T23:28:21.471Z,4.33
2018-09-29T23:30:50.109Z,3.77
2018-09-29T23:33:24.735Z,3.80
2018-09-29T23:35:52.924Z,3.67
2018-09-29T23:38:21.094Z,4.43
2018-09-29T23:40:49.296Z,4.07
2018-09-29T23:43:17.484Z,4.07
2018-09-29T23:45:46.047Z,4.37
2018-09-29T23:48:14.236Z,4.40
2018-09-29T23:50:42.416Z,4.30
2018-09-29T23:53:10.959Z,4.57
2018-09-29T23:55:39.162Z,3.90
2018-09-29T23:58:07.310Z,4.30
